createdAt,value
2018-11-23T07:05:28.647Z,32.70
2018-11-23T07:07:59.044Z,34.10
2018-11-23T07:10:29.595Z,34.00
2018-11-23T07:12:59.447Z,33.90
2018-11-23T07:15:29.501Z,34.20
2018-11-23T07:17:59.759Z,34.80
2018-11-23T07:20:29.822Z,36.50
2018-11-23T07:22:59.695Z,35.50
2018-11-23T07:25:29.160Z,34.30
2018-11-23T07:27:58.790Z,33.60
2018-11-23T07:30:29.539Z,33.40
2018-11-23T07:32:59.637Z,33.70
2018-11-23T07:35:29.163Z,33.50
2018-11-23T07:37:58.799Z,33.40
2018-11-23T07:40:38.942Z,33.70
2018-11-23T07:43:08.581Z,33.90
2018-11-23T07:45:38.293Z,33.70
2018-11-23T07:48:08.355Z,33.50
2018-11-23T07:50:37.618Z,33.30
2018-11-23T07:53:07.178Z,33.30
2018-11-23T07:55:36.803Z,33.10
2018-11-23T07:58:07.399Z,33.50
2018-11-23T08:00:36.739Z,33.20
2018-11-23T08:03:06.475Z,33.30
2018-11-23T08:05:35.802Z,33.80
2018-11-23T08:08:06.682Z,33.20
2018-11-23T08:10:34.810Z,33.50
2018-11-23T08:13:04.293Z,33.10
2018-11-23T08:15:33.754Z,33.30
2018-11-23T08:18:03.430Z,33.60
2018-11-23T08:20:33.032Z,33.60
2018-11-23T08:23:03.653Z,33.90
2018-11-23T08:25:33.521Z,34.00
2018-11-23T08:28:03.838Z,34.20
2018-11-23T08:30:33.477Z,34.10
2018-11-23T08:33:03.862Z,34.10
2018-11-23T08:35:33.444Z,34.10
2018-11-23T08:38:03.031Z,34.10
2018-11-23T08:40:33.040Z,34.10
2018-11-23T08:43:03.149Z,34.00
2018-11-23T08:45:32.552Z,33.90
2018-11-23T08:48:02.302Z,33.80
2018-11-23T08:50:32.091Z,34.10
2018-11-23T08:53:01.486Z,34.20
2018-11-23T08:55:31.144Z,34.10
2018-11-23T08:58:00.522Z,34.40
2018-11-23T09:00:30.261Z,34.10
2018-11-23T09:03:01.695Z,34.00
2018-11-23T09:05:31.361Z,33.90
2018-11-23T09:08:00.844Z,33.90
2018-11-23T09:10:31.442Z,33.80
2018-11-23T09:13:02.549Z,33.90
2018-11-23T09:15:32.098Z,34.20
2018-11-23T09:18:01.732Z,34.10
2018-11-23T09:20:31.781Z,34.00
2018-11-23T09:23:01.357Z,33.70
2018-11-23T09:25:31.331Z,34.70
2018-11-23T09:28:00.809Z,33.90
2018-11-23T09:30:30.706Z,34.00
2018-11-23T09:33:00.245Z,33.90
2018-11-23T09:35:30.004Z,33.90
2018-11-23T09:37:59.628Z,34.50
2018-11-23T09:40:30.702Z,34.20
2018-11-23T09:43:00.031Z,34.10
2018-11-23T09:45:32.143Z,34.00
2018-11-23T09:48:03.216Z,34.00
2018-11-23T09:50:33.001Z,33.80
2018-11-23T09:53:04.151Z,33.90
2018-11-23T09:55:35.471Z,34.10
2018-11-23T09:58:05.620Z,34.40
2018-11-23T10:00:37.475Z,34.10
2018-11-23T10:03:07.430Z,34.10
2018-11-23T10:05:37.110Z,33.80
2018-11-23T10:08:07.829Z,33.70
2018-11-23T10:10:37.575Z,33.60
2018-11-23T10:13:07.353Z,33.90
2018-11-23T10:15:37.536Z,33.60
2018-11-23T10:18:06.882Z,33.90
2018-11-23T10:20:37.215Z,33.90
2018-11-23T10:23:06.872Z,33.90
2018-11-23T10:25:36.820Z,34.70
2018-11-23T10:28:06.082Z,34.30
2018-11-23T10:30:36.261Z,33.90
2018-11-23T10:33:07.010Z,33.80
2018-11-23T10:35:36.414Z,33.80
2018-11-23T10:38:06.552Z,33.90
2018-11-23T10:40:37.666Z,33.90
2018-11-23T10:43:07.888Z,33.90
2018-11-23T10:45:38.104Z,33.90
2018-11-23T10:48:08.451Z,33.90
2018-11-23T10:50:39.622Z,34.00
2018-11-23T10:53:09.187Z,33.80
2018-11-23T10:55:39.327Z,33.50
2018-11-23T10:58:08.530Z,33.60
2018-11-23T11:00:42.402Z,33.50
2018-11-23T11:03:16.229Z,33.50
2018-11-23T11:05:49.735Z,33.30
2018-11-23T11:08:19.091Z,33.70
2018-11-23T11:10:48.747Z,33.90
2018-11-23T11:13:18.590Z,34.10
2018-11-23T11:15:48.075Z,33.60
2018-11-23T11:18:17.551Z,33.60
2018-11-23T11:20:48.141Z,33.60
2018-11-23T11:23:17.805Z,33.70
2018-11-23T11:25:47.280Z,33.60
2018-11-23T11:28:17.003Z,33.70
2018-11-23T11:30:46.389Z,33.80
2018-11-23T11:33:16.046Z,33.90
2018-11-23T11:35:46.451Z,33.90
2018-11-23T11:38:16.380Z,33.80
2018-11-23T11:40:45.792Z,34.00
2018-11-23T11:43:15.415Z,33.70
2018-11-23T11:45:45.089Z,33.80
2018-11-23T11:48:14.925Z,34.00
2018-11-23T11:50:44.342Z,33.80
2018-11-23T11:53:14.120Z,33.90
2018-11-23T11:55:44.293Z,34.00
2018-11-23T11:58:13.410Z,33.70
2018-11-23T12:00:42.961Z,33.80
2018-11-23T12:03:12.704Z,33.80
2018-11-23T12:05:42.536Z,33.90
2018-11-23T12:08:12.031Z,33.80
2018-11-23T12:10:41.177Z,34.00
2018-11-23T12:13:11.063Z,34.30
2018-11-23T12:15:41.022Z,33.90
2018-11-23T12:18:10.787Z,33.90
2018-11-23T12:20:40.146Z,33.80
2018-11-23T12:23:10.199Z,34.10
2018-11-23T12:25:40.349Z,34.70
2018-11-23T12:28:10.057Z,33.80
2018-11-23T12:30:39.588Z,34.00
2018-11-23T12:33:08.915Z,33.70
2018-11-23T12:35:38.801Z,33.90
2018-11-23T12:38:08.029Z,33.40
2018-11-23T12:40:37.506Z,33.50
2018-11-23T12:43:07.467Z,33.60
2018-11-23T12:45:37.019Z,33.50
2018-11-23T12:48:06.619Z,33.50
2018-11-23T12:50:36.153Z,33.50
2018-11-23T12:53:06.526Z,33.30
2018-11-23T12:55:35.122Z,33.20
2018-11-23T12:58:04.993Z,33.30
2018-11-23T13:00:34.746Z,33.70
2018-11-23T13:03:05.487Z,33.40
2018-11-23T13:05:36.202Z,33.40
2018-11-23T13:08:07.165Z,33.20
2018-11-23T13:10:36.820Z,33.20
2018-11-23T13:13:06.855Z,33.70
2018-11-23T13:15:36.133Z,33.10
2018-11-23T13:18:05.582Z,33.00
2018-11-23T13:20:34.942Z,32.90
2018-11-23T13:23:04.595Z,33.00
2018-11-23T13:25:34.556Z,33.00
2018-11-23T13:28:04.694Z,33.00
2018-11-23T13:30:35.872Z,33.10
2018-11-23T13:33:06.226Z,33.30
2018-11-23T13:35:35.883Z,33.50
2018-11-23T13:38:05.909Z,33.20
2018-11-23T13:40:35.750Z,33.50
2018-11-23T13:43:05.271Z,33.60
2018-11-23T13:45:35.287Z,33.40
2018-11-23T13:48:04.496Z,33.20
2018-11-23T13:50:34.470Z,33.20
2018-11-23T13:53:03.800Z,33.20
2018-11-23T13:55:33.405Z,33.30
2018-11-23T13:58:02.943Z,33.10
2018-11-23T14:00:32.619Z,33.60
2018-11-23T14:03:02.058Z,33.60
2018-11-23T14:05:32.574Z,33.50
2018-11-23T14:08:02.879Z,33.30
2018-11-23T14:10:32.940Z,33.90
2018-11-23T14:13:02.225Z,33.50
2018-11-23T14:15:32.300Z,33.30
2018-11-23T14:18:02.411Z,33.10
2018-11-23T14:20:32.031Z,33.30
2018-11-23T14:23:01.474Z,33.20
2018-11-23T14:25:32.034Z,33.30
2018-11-23T14:28:01.607Z,33.00
2018-11-23T14:30:32.452Z,33.20
2018-11-23T14:33:02.774Z,33.00
2018-11-23T14:35:33.521Z,32.40
2018-11-23T14:38:03.974Z,33.20
2018-11-23T14:40:33.353Z,33.50
2018-11-23T14:43:02.770Z,33.50
2018-11-23T14:45:33.913Z,33.30
2018-11-23T14:48:05.366Z,33.30
2018-11-23T14:50:36.883Z,33.50
2018-11-23T14:53:06.162Z,33.30
2018-11-23T14:55:35.950Z,33.50
2018-11-23T14:58:05.719Z,33.50
2018-11-23T15:00:36.520Z,33.40
2018-11-23T15:03:07.725Z,33.20
2018-11-23T15:05:38.088Z,33.20
2018-11-23T15:08:08.693Z,33.30
2018-11-23T15:10:38.629Z,33.20
2018-11-23T15:13:08.334Z,33.30
2018-11-23T15:15:39.518Z,33.50
2018-11-23T15:18:09.589Z,33.30
2018-11-23T15:20:40.733Z,33.20
2018-11-23T15:23:11.628Z,33.10
2018-11-23T15:25:41.072Z,33.30
2018-11-23T15:28:11.411Z,33.50
2018-11-23T15:30:41.507Z,33.20
2018-11-23T15:33:14.063Z,33.70
2018-11-23T15:35:45.126Z,33.70
2018-11-23T15:38:17.408Z,33.70
2018-11-23T15:40:47.074Z,33.40
2018-11-23T15:43:18.148Z,32.70
2018-11-23T15:45:47.912Z,33.10
2018-11-23T15:48:17.581Z,33.30
2018-11-23T15:50:46.789Z,33.60
2018-11-23T15:53:17.068Z,33.50
2018-11-23T15:55:46.396Z,33.50
2018-11-23T15:58:17.067Z,33.40
2018-11-23T16:00:47.799Z,33.40
2018-11-23T16:03:17.940Z,33.20
2018-11-23T16:05:48.457Z,33.50
2018-11-23T16:08:19.538Z,33.00
